This is the latest recevied weather packets stored in our database for station/object EA5GTE-12. If no packets are shown the sender has not sent any weather packets the latest 10 day(s).
| Time | Temp. | Humidity | Pressure | Rain* | Wind** | Luminosity | Snow |
|---|---|---|---|---|---|---|---|
| 1788482332 | 20.56° C | 100% | 946 hPa | - | - | - | - |
| 1788481432 | 20.56° C | 100% | 946.1 hPa | - | - | - | - |
| 1788480532 | 21.67° C | 100% | 946.1 hPa | - | - | - | - |
| 1788479632 | 23.33° C | 92% | 945.9 hPa | - | - | - | - |
| 1788478732 | 23.33° C | 89% | 945.6 hPa | - | - | - | - |
| 1788477832 | 23.33° C | 90% | 945.7 hPa | - | - | - | - |
| 1788476928 | 23.33° C | 87% | 945.7 hPa | - | - | - | - |
| 1788476028 | 23.33° C | 86% | 945.7 hPa | - | - | - | - |
| 1788475128 | 23.89° C | 82% | 945.5 hPa | - | - | - | - |
| 1788473327 | 24.44° C | 78% | 945.4 hPa | - | - | - | - |
| 1788472427 | 25° C | 76% | 945.3 hPa | - | - | - | - |
| 1788471527 | 25° C | 75% | 945.3 hPa | - | - | - | - |
| 1788470627 | 25.56° C | 73% | 945.3 hPa | - | - | - | - |
| 1788469727 | 25.56° C | 71% | 945.3 hPa | - | - | - | - |
| 1788468827 | 26.11° C | 69% | 945.2 hPa | - | - | - | - |
| 1788467927 | 26.67° C | 65% | 945.2 hPa | - | - | - | - |
| 1788467027 | 26.67° C | 64% | 945.1 hPa | - | - | - | - |
| 1788466127 | 27.22° C | 61% | 944.9 hPa | - | - | - | - |
| 1788465227 | 27.78° C | 56% | 944.7 hPa | - | - | - | - |
| 1788464327 | 28.33° C | 53% | 944.4 hPa | - | - | - | - |
| 1788463427 | 28.89° C | 49% | 944.2 hPa | - | - | - | - |
| 1788462527 | 29.44° C | 46% | 944 hPa | - | - | - | - |
| 1788461627 | 30° C | 42% | 943.7 hPa | - | - | - | - |
| 1788460727 | 30.56° C | 38% | 943.7 hPa | - | - | - | - |
| 1788459827 | 32.78° C | 22% | 943.5 hPa | - | - | - | - |
* Rain since midnight (hover to see other rain measurements)
** Current wind speed in m/s (hover to see current wind gust speed)